Time;durP1;ratioP1;P1;durP2;ratioP2;P2;SDS_P1;SDS_P2;PMS_P1;PMS_P2;Temp;Humidity;BMP_temperature;BMP_pressure;BME280_temperature;BME280_humidity;BME280_pressure;Samples;Min_cycle;Max_cycle;Signal;HPM_P1;HPM_P2
2023/06/15 01:04:17;;;;;;;2.10;1.90;;;;;;;23.03;35.49;101540.69;4746864;28;20112;-63
2023/06/15 01:06:51;;;;;;;2.95;2.20;;;;;;;22.99;35.18;101544.81;5035072;28;20397;-63
2023/06/15 01:09:17;;;;;;;5.53;1.95;;;;;;;22.94;36.20;101552.75;5044447;28;20032;-63
2023/06/15 01:11:43;;;;;;;4.10;1.95;;;;;;;22.91;36.02;101547.66;5034398;28;20025;-62
2023/06/15 01:14:10;;;;;;;2.30;2.08;;;;;;;22.87;35.56;101549.06;5035272;28;20021;-63
2023/06/15 01:16:39;;;;;;;1.67;1.58;;;;;;;22.84;35.29;101549.47;5034147;28;20026;-63
2023/06/15 01:19:09;;;;;;;2.53;2.20;;;;;;;22.83;35.45;101545.06;5033856;28;20025;-62
2023/06/15 01:21:36;;;;;;;3.55;2.00;;;;;;;22.80;35.95;101556.38;5036593;28;20025;-64
2023/06/15 01:24:05;;;;;;;2.40;2.17;;;;;;;22.76;36.12;101550.44;5036776;28;20025;-64
2023/06/15 01:26:33;;;;;;;2.60;2.20;;;;;;;22.72;35.88;101546.41;5053834;28;20028;-62
2023/06/15 01:28:59;;;;;;;4.70;2.17;;;;;;;22.65;35.96;101547.31;5037067;28;20040;-62
2023/06/15 01:31:25;;;;;;;8.52;2.22;;;;;;;22.60;36.09;101537.81;5036838;28;20029;-62
2023/06/15 01:33:51;;;;;;;3.85;2.22;;;;;;;22.62;36.23;101554.00;5036484;28;20035;-62
2023/06/15 01:36:17;;;;;;;3.90;2.20;;;;;;;22.54;36.21;101552.22;5037031;28;20116;-63
2023/06/15 01:38:44;;;;;;;2.40;1.90;;;;;;;22.52;36.87;101547.97;5020276;28;20029;-63
2023/06/15 01:41:10;;;;;;;5.53;2.35;;;;;;;22.51;36.71;101549.84;5053310;28;20078;-63
2023/06/15 01:43:36;;;;;;;2.85;2.05;;;;;;;22.51;36.60;101552.59;5043344;28;20034;-63
2023/06/15 01:46:04;;;;;;;2.08;1.80;;;;;;;22.49;36.56;101548.34;5016741;28;20128;-63
2023/06/15 01:48:30;;;;;;;9.00;2.15;;;;;;;22.44;36.54;101546.19;5016078;28;20116;-63
2023/06/15 01:50:56;;;;;;;3.42;2.95;;;;;;;22.45;36.36;101545.16;5016556;28;20172;-63
2023/06/15 01:53:21;;;;;;;3.97;2.15;;;;;;;22.38;36.87;101535.19;5032735;28;20413;-63
2023/06/15 01:55:47;;;;;;;5.85;2.15;;;;;;;22.39;36.69;101547.81;5032733;28;20040;-63
2023/06/15 01:58:15;;;;;;;3.92;2.10;;;;;;;22.36;36.75;101545.44;5016551;28;20121;-63
2023/06/15 02:00:41;;;;;;;3.60;2.28;;;;;;;22.33;37.16;101549.41;5017105;28;20048;-63
2023/06/15 02:03:06;;;;;;;3.63;2.30;;;;;;;22.30;36.55;101563.44;5033108;28;20040;-63
2023/06/15 02:05:32;;;;;;;3.47;2.28;;;;;;;22.27;37.56;101563.81;5032836;28;20493;-63
2023/06/15 02:07:57;;;;;;;2.28;1.85;;;;;;;22.23;37.04;101564.34;5016251;28;20112;-63
2023/06/15 02:10:23;;;;;;;6.07;2.25;;;;;;;22.19;37.32;101558.44;5033839;28;20049;-63
2023/06/15 02:12:48;;;;;;;5.10;2.10;;;;;;;22.17;37.97;101560.47;5035670;28;20396;-63
2023/06/15 02:15:14;;;;;;;1.67;1.48;;;;;;;22.14;37.31;101560.84;5033021;28;20038;-63
2023/06/15 02:17:39;;;;;;;6.68;2.20;;;;;;;22.12;37.33;101562.06;5039486;28;20067;-63
2023/06/15 02:20:09;;;;;;;3.13;2.33;;;;;;;22.11;38.15;101563.94;5053316;28;20499;-63
2023/06/15 02:22:34;;;;;;;2.50;1.88;;;;;;;22.10;37.57;101558.69;5035884;28;20146;-63
2023/06/15 02:25:00;;;;;;;3.08;2.28;;;;;;;22.08;37.82;101560.78;5036134;28;20121;-63
2023/06/15 02:27:25;;;;;;;2.15;1.95;;;;;;;22.10;37.43;101567.72;5053770;28;20044;-63
2023/06/15 02:29:51;;;;;;;7.53;2.08;;;;;;;22.04;38.17;101557.56;5036160;28;20399;-63
2023/06/15 02:32:34;;;;;;;5.07;2.40;;;;;;;22.01;38.01;101557.94;5036063;28;20057;-63
2023/06/15 02:35:00;;;;;;;;;;;;;;;21.99;37.95;101563.59;5036591;28;20035;-63
2023/06/15 02:37:25;;;;;;;3.53;2.35;;;;;;;21.97;37.96;101553.88;5052691;28;19913;-63
2023/06/15 02:39:50;;;;;;;3.03;2.42;;;;;;;21.94;38.42;101563.25;5053325;28;20090;-63
2023/06/15 02:42:16;;;;;;;3.53;2.10;;;;;;;21.89;37.89;101559.41;5053604;28;20108;-63
2023/06/15 02:44:41;;;;;;;3.92;2.50;;;;;;;21.85;37.58;101556.19;5035914;28;20476;-63
2023/06/15 02:47:07;;;;;;;3.75;2.38;;;;;;;21.86;38.33;101567.94;5052145;28;20029;-63
2023/06/15 02:49:32;;;;;;;3.42;2.17;;;;;;;21.81;38.20;101564.91;5053512;28;20106;-63
2023/06/15 02:51:58;;;;;;;7.25;2.22;;;;;;;21.83;38.07;101562.84;5032308;28;20061;-62
2023/06/15 02:54:23;;;;;;;3.55;2.25;;;;;;;21.82;37.94;101562.00;5035438;28;20091;-63
2023/06/15 02:56:49;;;;;;;3.40;2.72;;;;;;;21.82;38.20;101563.88;5036506;28;20025;-63
2023/06/15 02:59:15;;;;;;;3.55;2.40;;;;;;;21.81;38.12;101564.91;5036264;28;20524;-63
2023/06/15 03:01:41;;;;;;;3.97;2.20;;;;;;;21.77;38.43;101559.00;5019938;28;20037;-63
2023/06/15 03:04:09;;;;;;;1.95;1.67;;;;;;;21.73;38.50;101562.25;5019713;28;20061;-64
2023/06/15 03:06:36;;;;;;;3.13;2.47;;;;;;;21.71;38.01;101564.31;5020234;28;20041;-63
2023/06/15 03:09:02;;;;;;;2.70;2.10;;;;;;;21.66;38.83;101562.16;5020080;28;20129;-63
2023/06/15 03:11:28;;;;;;;3.58;2.50;;;;;;;21.63;38.57;101572.56;5036424;28;20400;-63
2023/06/15 03:13:53;;;;;;;3.85;2.20;;;;;;;21.58;38.54;101564.09;5036142;28;20116;-63
2023/06/15 03:16:19;;;;;;;3.88;2.70;;;;;;;21.57;39.11;101570.56;5019695;28;20425;-63
2023/06/15 03:18:44;;;;;;;4.00;2.17;;;;;;;21.54;38.73;101570.94;5036034;28;20546;-63
2023/06/15 03:21:11;;;;;;;6.03;2.97;;;;;;;21.52;39.14;101576.59;5019935;28;20451;-62
2023/06/15 03:23:38;;;;;;;3.72;1.90;;;;;;;21.51;39.21;101569.41;5037376;28;20030;-62
2023/06/15 03:26:06;;;;;;;3.30;2.90;;;;;;;21.43;38.97;101564.03;5019634;28;20033;-63
2023/06/15 03:28:38;;;;;;;5.55;2.63;;;;;;;21.50;39.25;101573.16;5019921;28;20029;-63
2023/06/15 03:31:04;;;;;;;2.87;2.40;;;;;;;21.47;38.91;101574.38;5036862;28;20026;-63
2023/06/15 03:33:30;;;;;;;7.55;2.70;;;;;;;21.39;38.97;101576.31;5035666;28;20032;-63
2023/06/15 03:35:57;;;;;;;9.77;2.70;;;;;;;21.41;38.66;101579.72;5035652;28;20040;-63
2023/06/15 03:38:23;;;;;;;6.30;2.40;;;;;;;21.37;38.72;101581.97;5019709;28;20021;-63
2023/06/15 03:40:48;;;;;;;2.20;2.00;;;;;;;21.35;38.77;101584.03;5035548;28;20037;-63
2023/06/15 03:43:14;;;;;;;2.80;2.60;;;;;;;21.30;39.37;101567.34;5019113;28;20029;-63
2023/06/15 03:45:40;;;;;;;3.53;2.70;;;;;;;21.32;39.45;101580.81;5037219;28;20059;-62
2023/06/15 03:48:06;;;;;;;3.72;2.22;;;;;;;21.32;39.13;101587.13;5035411;28;20412;-63
2023/06/15 03:50:32;;;;;;;2.55;2.22;;;;;;;21.29;39.66;101582.03;5035307;28;20119;-63
2023/06/15 03:52:58;;;;;;;8.35;2.90;;;;;;;21.31;39.88;101590.84;5019212;28;20487;-62
2023/06/15 03:55:25;;;;;;;6.45;2.58;;;;;;;21.28;39.33;101583.03;5036788;28;20031;-62
2023/06/15 03:57:50;;;;;;;3.80;2.38;;;;;;;21.32;39.33;101589.00;5019286;28;20429;-62
2023/06/15 04:00:16;;;;;;;4.85;2.35;;;;;;;21.36;39.49;101590.31;5037575;28;20021;-62
2023/06/15 04:02:41;;;;;;;2.60;2.33;;;;;;;21.38;39.46;101586.38;5038550;28;20028;-62
2023/06/15 04:05:09;;;;;;;5.43;2.53;;;;;;;21.39;39.64;101593.53;5018865;28;20046;-62
2023/06/15 04:07:34;;;;;;;3.25;2.33;;;;;;;21.40;39.66;101589.78;5033912;28;20057;-62
2023/06/15 04:10:00;;;;;;;2.75;2.30;;;;;;;21.43;39.57;101589.44;5035456;28;20045;-64
2023/06/15 04:12:25;;;;;;;4.65;2.00;;;;;;;21.46;39.93;101589.06;5035207;28;20084;-63
2023/06/15 04:14:51;;;;;;;2.60;2.40;;;;;;;21.51;39.77;101591.22;5036033;28;20037;-62
2023/06/15 04:17:18;;;;;;;5.78;3.22;;;;;;;21.56;39.45;101598.84;5036228;28;20384;-62
2023/06/15 04:19:44;;;;;;;4.07;3.05;;;;;;;21.61;39.68;101601.91;5035308;28;20017;-62
2023/06/15 04:22:09;;;;;;;4.25;2.78;;;;;;;21.65;40.23;101593.19;5036301;28;20030;-62
2023/06/15 04:24:35;;;;;;;4.30;2.67;;;;;;;21.71;39.68;101592.44;5036049;28;20021;-62
2023/06/15 04:27:00;;;;;;;3.28;2.58;;;;;;;21.80;39.48;101601.41;5035028;28;20029;-62
2023/06/15 04:29:30;;;;;;;3.80;2.95;;;;;;;21.88;40.28;101601.38;5034759;28;20075;-63
2023/06/15 04:31:58;;;;;;;3.80;2.70;;;;;;;21.97;40.00;101597.53;5034705;28;20104;-62
2023/06/15 04:34:24;;;;;;;2.95;2.58;;;;;;;22.09;39.80;101600.66;5034667;28;20478;-63
2023/06/15 04:36:50;;;;;;;5.28;2.47;;;;;;;22.19;40.46;101601.25;5018402;28;20496;-63
2023/06/15 04:39:16;;;;;;;3.38;2.80;;;;;;;22.31;39.93;101599.75;5001891;28;20029;-63
2023/06/15 04:41:42;;;;;;;5.03;3.65;;;;;;;22.43;40.13;101607.31;5018119;28;20541;-63
2023/06/15 04:44:08;;;;;;;4.22;2.85;;;;;;;22.54;39.74;101606.84;5034267;28;20607;-63
2023/06/15 04:46:36;;;;;;;6.68;2.50;;;;;;;22.67;40.44;101616.31;5017874;28;20072;-63
2023/06/15 04:49:03;;;;;;;2.92;2.35;;;;;;;22.76;39.96;101606.94;5034276;28;20178;-63
2023/06/15 04:51:31;;;;;;;2.95;2.50;;;;;;;22.88;40.51;101613.63;5035410;28;20025;-63
2023/06/15 04:53:56;;;;;;;4.13;3.38;;;;;;;23.00;40.12;101612.13;5034043;28;20484;-62
2023/06/15 04:56:22;;;;;;;6.22;3.10;;;;;;;23.13;40.39;101612.28;5035931;28;20534;-63
2023/06/15 04:58:48;;;;;;;9.82;2.95;;;;;;;23.26;39.96;101615.16;5034460;28;20527;-62
2023/06/15 05:01:15;;;;;;;5.22;3.00;;;;;;;23.43;40.28;101619.38;5034553;28;20029;-62
2023/06/15 05:03:41;;;;;;;5.80;3.28;;;;;;;23.60;40.07;101620.84;5034271;28;20026;-62
2023/06/15 05:06:07;;;;;;;4.00;3.40;;;;;;;23.75;40.04;101629.84;5017530;28;20052;-63
2023/06/15 05:08:33;;;;;;;4.30;3.25;;;;;;;23.94;40.00;101622.00;5034241;28;20021;-63
2023/06/15 05:10:59;;;;;;;5.85;4.00;;;;;;;24.13;39.88;101629.56;5017826;28;20520;-63
2023/06/15 05:13:25;;;;;;;15.40;3.50;;;;;;;24.31;40.14;101629.94;5047924;28;20044;-63
2023/06/15 05:15:51;;;;;;;8.73;4.65;;;;;;;24.48;39.79;101625.00;5053959;28;20076;-63
2023/06/15 05:18:16;;;;;;;5.93;4.00;;;;;;;24.62;38.63;101621.28;5036887;28;20507;-63
2023/06/15 05:20:42;;;;;;;6.97;4.07;;;;;;;24.82;38.66;101634.06;5053776;28;20029;-65
2023/06/15 05:23:07;;;;;;;4.63;3.60;;;;;;;25.00;39.04;101629.94;5036874;28;20025;-62
2023/06/15 05:25:33;;;;;;;7.90;4.55;;;;;;;25.17;38.83;101626.66;5020344;28;20123;-65
2023/06/15 05:27:58;;;;;;;7.78;4.13;;;;;;;25.34;38.87;101638.97;5036843;28;20037;-63
2023/06/15 05:30:26;;;;;;;5.97;3.85;;;;;;;25.51;38.69;101623.00;5053293;28;20067;-62
2023/06/15 05:32:52;;;;;;;5.93;4.25;;;;;;;25.66;38.36;101625.53;5037093;28;20059;-65
2023/06/15 05:35:18;;;;;;;6.85;3.47;;;;;;;25.85;38.13;101631.06;5053195;28;20480;-65
2023/06/15 05:37:43;;;;;;;7.32;4.30;;;;;;;26.02;37.88;101615.88;5052872;28;20047;-64
2023/06/15 05:40:09;;;;;;;6.22;4.15;;;;;;;26.23;37.53;101622.25;5054318;28;20043;-64
2023/06/15 05:42:35;;;;;;;6.25;3.95;;;;;;;26.41;37.59;101623.25;5052820;28;20476;-63
2023/06/15 05:45:00;;;;;;;5.30;3.30;;;;;;;26.60;37.53;101624.31;5036140;28;20029;-63
2023/06/15 05:47:26;;;;;;;4.63;3.88;;;;;;;26.80;37.33;101638.84;5053015;28;20392;-62
2023/06/15 05:49:51;;;;;;;8.48;3.95;;;;;;;26.98;37.19;101636.28;5036674;28;20541;-64
2023/06/15 05:52:17;;;;;;;6.78;3.60;;;;;;;27.17;36.84;101631.75;5052671;28;20032;-63
2023/06/15 05:54:46;;;;;;;6.55;4.10;;;;;;;27.38;37.10;101630.59;5036115;28;20146;-63
2023/06/15 05:57:12;;;;;;;8.38;3.50;;;;;;;27.57;37.01;101632.44;5053643;28;20021;-63
2023/06/15 05:59:38;;;;;;;4.47;3.50;;;;;;;27.75;36.15;101629.75;5036185;28;20028;-65
2023/06/15 06:02:04;;;;;;;4.03;2.97;;;;;;;27.96;36.25;101621.13;5052591;28;20024;-63
2023/06/15 06:04:29;;;;;;;6.80;4.15;;;;;;;28.16;35.72;101630.13;5052331;28;20102;-63
2023/06/15 06:06:55;;;;;;;4.45;3.80;;;;;;;28.35;35.10;101630.16;5052350;28;20447;-65
2023/06/15 06:09:20;;;;;;;4.60;4.20;;;;;;;28.52;35.59;101625.75;5052379;28;20451;-63
2023/06/15 06:11:48;;;;;;;6.88;3.45;;;;;;;28.69;35.03;101627.72;5052283;28;20116;-64
2023/06/15 06:14:14;;;;;;;5.95;3.33;;;;;;;28.85;35.22;101629.00;5036101;28;20079;-64
2023/06/15 06:16:40;;;;;;;5.00;3.40;;;;;;;29.03;34.25;101634.53;5035597;28;20393;-64
2023/06/15 06:19:05;;;;;;;12.77;3.50;;;;;;;29.17;34.44;101625.03;5052180;28;20029;-64
2023/06/15 06:21:32;;;;;;;7.63;4.07;;;;;;;29.29;34.65;101622.31;5052211;28;20051;-63
2023/06/15 06:23:57;;;;;;;18.35;3.95;;;;;;;29.44;34.43;101629.13;5053578;28;20032;-64
2023/06/15 06:26:23;;;;;;;5.97;4.00;;;;;;;29.61;34.25;101631.22;5053761;28;20032;-64
2023/06/15 06:28:49;;;;;;;7.90;3.13;;;;;;;29.71;33.42;101625.97;5051554;28;20396;-64
2023/06/15 06:31:14;;;;;;;5.03;3.28;;;;;;;29.76;33.63;101626.94;5051675;28;20025;-64
2023/06/15 06:33:40;;;;;;;4.43;3.40;;;;;;;29.86;33.12;101623.66;5051928;28;20036;-64
2023/06/15 06:36:08;;;;;;;7.70;3.35;;;;;;;29.99;33.28;101635.34;5051950;28;20032;-65
2023/06/15 06:38:34;;;;;;;3.17;2.88;;;;;;;30.11;33.07;101628.97;5053117;28;20104;-64
2023/06/15 06:40:59;;;;;;;4.82;3.15;;;;;;;30.23;32.66;101625.16;5053037;28;20099;-64
2023/06/15 06:43:24;;;;;;;6.07;3.13;;;;;;;30.40;32.66;101628.91;5052887;28;20056;-64
2023/06/15 06:45:50;;;;;;;6.05;3.10;;;;;;;30.53;32.90;101628.69;5051707;28;20036;-64
2023/06/15 06:48:16;;;;;;;9.65;3.90;;;;;;;30.66;32.60;101629.50;5053061;28;20048;-65
2023/06/15 06:50:41;;;;;;;5.30;3.00;;;;;;;30.80;32.50;101633.69;5053214;28;20064;-64
2023/06/15 06:53:07;;;;;;;5.60;3.42;;;;;;;30.93;32.36;101625.16;5051905;28;20036;-65
2023/06/15 06:55:32;;;;;;;11.88;3.22;;;;;;;31.08;31.98;101634.63;5035333;28;20384;-65
2023/06/15 06:58:00;;;;;;;5.72;3.13;;;;;;;31.21;32.06;101628.00;5051714;28;20029;-64
2023/06/15 07:00:26;;;;;;;11.55;2.90;;;;;;;31.36;31.63;101631.03;5052881;28;20099;-64
2023/06/15 07:02:52;;;;;;;5.90;2.80;;;;;;;31.52;31.51;101633.03;5035250;28;20028;-65
2023/06/15 07:05:17;;;;;;;6.03;2.83;;;;;;;31.71;31.46;101626.19;5035038;28;20068;-65
2023/06/15 07:07:43;;;;;;;9.88;3.00;;;;;;;31.91;31.23;101627.69;5051670;28;20025;-65
2023/06/15 07:10:08;;;;;;;2.35;2.13;;;;;;;31.97;31.20;101610.84;5052841;28;20033;-64
2023/06/15 07:12:34;;;;;;;4.90;2.10;;;;;;;32.19;31.16;101630.41;5051556;28;20112;-65
2023/06/15 07:14:59;;;;;;;4.78;2.67;;;;;;;32.32;31.25;101630.06;5034948;28;20044;-64
2023/06/15 07:17:25;;;;;;;7.28;2.65;;;;;;;32.47;30.52;101624.72;5052900;28;20446;-64
2023/06/15 07:19:50;;;;;;;7.07;2.58;;;;;;;32.65;30.19;101629.19;5051762;28;20043;-64
2023/06/15 07:22:17;;;;;;;4.32;2.45;;;;;;;32.80;30.02;101626.66;5052657;28;20036;-64
2023/06/15 07:24:43;;;;;;;6.57;2.42;;;;;;;32.90;29.59;101632.31;5052222;28;20032;-64
2023/06/15 07:27:08;;;;;;;10.48;2.40;;;;;;;33.04;30.01;101644.72;5052186;28;20029;-65
2023/06/15 07:29:34;;;;;;;4.03;2.35;;;;;;;33.15;29.57;101629.06;5035876;28;20082;-65
2023/06/15 07:31:59;;;;;;;4.97;2.80;;;;;;;33.27;29.22;101640.88;5042050;28;20063;-64
2023/06/15 07:34:25;;;;;;;6.20;2.10;;;;;;;33.40;29.87;101637.69;5058912;28;20029;-64
2023/06/15 07:36:50;;;;;;;4.78;1.88;;;;;;;33.58;29.00;101633.75;5044374;28;20029;-65
2023/06/15 07:39:15;;;;;;;8.52;2.15;;;;;;;33.73;29.09;101645.84;5062387;28;20420;-64
2023/06/15 07:41:41;;;;;;;3.92;2.08;;;;;;;33.93;29.32;101640.50;5059265;28;20037;-64
2023/06/15 07:44:11;;;;;;;4.13;2.35;;;;;;;34.12;28.46;101632.63;5059668;28;20035;-64
2023/06/15 07:46:38;;;;;;;3.30;2.17;;;;;;;34.26;28.44;101636.63;5056457;28;20104;-65
2023/06/15 07:49:03;;;;;;;3.13;1.92;;;;;;;34.41;28.47;101633.13;5022846;28;20039;-64
2023/06/15 07:51:29;;;;;;;5.75;2.33;;;;;;;34.57;28.55;101637.72;5022039;28;20037;-66
2023/06/15 07:53:54;;;;;;;5.15;1.77;;;;;;;34.67;27.19;101637.78;5056896;28;20029;-65
2023/06/15 07:56:19;;;;;;;2.53;1.52;;;;;;;34.73;27.04;101638.66;5038580;28;20032;-66
2023/06/15 07:58:45;;;;;;;2.42;1.70;;;;;;;34.81;27.07;101641.78;5055091;28;20028;-67
2023/06/15 08:01:10;;;;;;;3.20;2.03;;;;;;;34.94;27.02;101644.06;5038201;28;20025;-66
2023/06/15 08:03:36;;;;;;;2.72;1.85;;;;;;;35.08;27.06;101639.69;5054740;28;20029;-67
2023/06/15 08:06:01;;;;;;;5.05;1.73;;;;;;;35.27;26.22;101636.41;5054307;28;20057;-65
2023/06/15 08:08:26;;;;;;;6.68;1.70;;;;;;;35.38;26.64;101638.13;5037751;28;20037;-65
2023/06/15 08:10:52;;;;;;;3.67;1.60;;;;;;;35.54;26.19;101639.84;5054667;28;20032;-66
2023/06/15 08:13:18;;;;;;;3.10;1.83;;;;;;;35.62;26.42;101639.34;5021434;28;20025;-65
2023/06/15 08:15:44;;;;;;;3.17;1.67;;;;;;;35.73;26.17;101643.84;5056051;28;20036;-66
2023/06/15 08:18:10;;;;;;;3.83;1.67;;;;;;;35.80;25.47;101638.81;5038263;28;20108;-66
2023/06/15 08:20:35;;;;;;;2.72;1.80;;;;;;;35.86;26.12;101643.28;5054448;28;20432;-66
2023/06/15 08:23:00;;;;;;;2.45;1.70;;;;;;;35.98;25.59;101646.66;5055420;28;20048;-66
2023/06/15 08:25:26;;;;;;;2.15;1.70;;;;;;;36.12;25.41;101639.44;5054584;28;20037;-66
2023/06/15 08:27:51;;;;;;;3.38;2.08;;;;;;;36.25;25.35;101639.97;5037692;28;20033;-66
2023/06/15 08:30:17;;;;;;;5.43;1.63;;;;;;;36.32;25.45;101643.31;5037589;28;20021;-66
2023/06/15 08:32:42;;;;;;;2.70;1.70;;;;;;;36.34;24.98;101638.28;5054146;28;20053;-66
2023/06/15 08:35:08;;;;;;;1.80;1.40;;;;;;;36.47;25.21;101629.31;5037488;28;20037;-67
2023/06/15 08:37:35;;;;;;;2.00;1.50;;;;;;;36.58;25.26;101626.25;5055348;28;20108;-66
2023/06/15 08:40:05;;;;;;;5.47;1.45;;;;;;;36.70;24.78;101632.38;5037537;28;20040;-67
2023/06/15 08:42:33;;;;;;;2.60;1.80;;;;;;;36.88;25.35;101636.50;5054092;28;20033;-65
2023/06/15 08:44:59;;;;;;;3.13;1.50;;;;;;;36.92;24.44;101632.03;5053999;28;20033;-65
2023/06/15 08:47:26;;;;;;;2.85;1.85;;;;;;;37.04;24.57;101629.78;5053837;28;20025;-65
2023/06/15 08:49:52;;;;;;;2.30;1.90;;;;;;;37.16;24.02;101637.84;5055114;28;20506;-65
2023/06/15 08:52:20;;;;;;;5.22;1.20;;;;;;;37.16;24.13;101641.44;5020117;28;20033;-66
2023/06/15 08:54:46;;;;;;;6.90;1.52;;;;;;;37.23;24.40;101639.19;5054014;28;20017;-65
2023/06/15 08:57:12;;;;;;;6.50;1.85;;;;;;;37.26;23.87;101627.44;5020542;28;20143;-67
2023/06/15 08:59:37;;;;;;;2.97;1.55;;;;;;;37.34;23.70;101629.63;5037108;28;20064;-67
2023/06/15 09:02:04;;;;;;;3.95;1.67;;;;;;;37.37;22.98;101628.22;5053679;28;20029;-65
2023/06/15 09:04:30;;;;;;;2.78;1.48;;;;;;;37.44;23.15;101627.94;5053640;28;20060;-65
2023/06/15 09:06:58;;;;;;;4.57;1.73;;;;;;;37.48;22.86;101627.06;5053506;28;20033;-65
2023/06/15 09:09:25;;;;;;;1.75;1.42;;;;;;;37.63;23.18;101628.94;5054895;28;20029;-66
2023/06/15 09:11:50;;;;;;;4.22;1.52;;;;;;;37.76;23.00;101629.09;5053927;28;20417;-66
2023/06/15 09:14:16;;;;;;;4.82;1.63;;;;;;;37.89;22.77;101624.81;5053839;28;20059;-66
2023/06/15 09:16:41;;;;;;;2.40;1.67;;;;;;;38.10;22.80;101631.94;5053948;28;20031;-67
2023/06/15 09:19:11;;;;;;;2.95;1.77;;;;;;;38.24;22.12;101632.94;5054042;28;20396;-66
2023/06/15 09:21:50;;;;;;;7.85;2.17;;;;;;;38.31;22.20;101626.97;5054746;28;20028;-65
2023/06/15 09:24:17;;;;;;;3.08;1.77;;;;;;;38.44;22.46;101627.16;5055200;28;20130;-65
2023/06/15 09:26:44;;;;;;;2.35;1.98;;;;;;;38.55;21.81;101627.06;5055152;28;20050;-67
2023/06/15 09:29:11;;;;;;;4.85;1.63;;;;;;;38.67;21.91;101627.50;5036818;28;20067;-66
2023/06/15 09:31:37;;;;;;;3.78;1.60;;;;;;;38.74;22.23;101628.81;5053549;28;20041;-66
2023/06/15 09:34:08;;;;;;;5.03;1.73;;;;;;;38.78;22.45;101623.47;5054207;28;20429;-67
2023/06/15 09:36:35;;;;;;;2.20;1.80;;;;;;;38.90;21.67;101618.25;5053240;28;20029;-67
2023/06/15 09:39:00;;;;;;;7.50;1.77;;;;;;;39.06;21.37;101622.53;5054364;28;20450;-66
2023/06/15 09:41:26;;;;;;;4.50;2.30;;;;;;;39.18;21.68;101614.53;5053265;28;20490;-66
2023/06/15 09:43:51;;;;;;;3.60;1.67;;;;;;;39.20;21.21;101617.88;5052922;28;20025;-66
2023/06/15 09:46:18;;;;;;;3.78;1.70;;;;;;;39.23;21.32;101610.84;5054253;28;20025;-66
2023/06/15 09:48:44;;;;;;;4.53;1.85;;;;;;;39.29;21.54;101616.09;5053126;28;20025;-66
2023/06/15 09:51:10;;;;;;;2.60;1.83;;;;;;;39.38;21.07;101616.25;5036461;28;20031;-65
2023/06/15 09:53:39;;;;;;;5.57;2.17;;;;;;;39.44;20.22;101617.84;5052732;28;20029;-65
2023/06/15 09:56:05;;;;;;;2.22;1.65;;;;;;;39.70;20.73;101623.94;5052991;28;20021;-65
2023/06/15 09:58:31;;;;;;;2.20;1.70;;;;;;;40.01;20.13;101623.13;5052726;28;20025;-66
2023/06/15 10:00:57;;;;;;;11.10;10.20;;;;;;;40.45;20.08;101619.00;5052502;28;20432;-66
2023/06/15 10:03:24;;;;;;;216.20;206.57;;;;;;;40.98;19.82;101619.41;5052409;28;20159;-65
2023/06/15 10:05:56;;;;;;;141.57;135.45;;;;;;;41.63;19.46;101619.88;5051584;28;20041;-66
2023/06/15 10:08:26;;;;;;;52.47;49.80;;;;;;;42.48;18.86;101614.06;5052297;28;20059;-66
2023/06/15 10:10:55;;;;;;;2.20;1.73;;;;;;;43.63;18.32;101623.09;5035774;28;20075;-66
2023/06/15 10:13:23;;;;;;;5.13;2.55;;;;;;;44.62;17.09;101623.97;5052273;28;20115;-66
2023/06/15 10:15:52;;;;;;;3.13;1.95;;;;;;;44.77;17.45;101618.56;5052378;28;20032;-66
2023/06/15 10:18:20;;;;;;;22.27;3.70;;;;;;;44.13;17.45;101608.44;5052524;28;20507;-66
2023/06/15 10:20:48;;;;;;;4.72;1.65;;;;;;;43.74;17.83;101613.13;5052322;28;20033;-67
2023/06/15 10:23:14;;;;;;;5.38;3.30;;;;;;;43.43;17.57;101613.28;5035733;28;20032;-67
2023/06/15 10:25:42;;;;;;;3.97;2.35;;;;;;;43.18;17.94;101613.19;5052228;28;20408;-66
2023/06/15 10:28:11;;;;;;;6.50;3.20;;;;;;;43.01;17.43;101622.47;5052222;28;20404;-65
2023/06/15 10:31:10;;;;;;;2.92;2.15;;;;;;;42.90;17.52;101616.28;5035995;28;20025;-66
2023/06/15 10:33:45;;;;;;;2.55;2.30;;;;;;;42.93;17.64;101609.97;5052167;28;20013;-67
2023/06/15 10:36:23;;;;;;;2.95;1.77;;;;;;;43.05;17.61;101611.38;5035893;28;20358;-67
2023/06/15 10:38:49;;;;;;;7.38;6.95;;;;;;;43.16;17.84;101607.06;5052233;28;20052;-66
2023/06/15 10:41:14;;;;;;;3.95;3.00;;;;;;;43.12;17.50;101604.06;5052103;28;20148;-66
2023/06/15 10:43:56;;;;;;;2.55;2.35;;;;;;;43.14;16.99;101603.72;5053182;28;20035;-67
2023/06/15 10:46:30;;;;;;;;;;;;;;;43.13;17.59;101602.91;5052606;28;20480;-65
2023/06/15 10:49:02;;;;;;;4.25;3.55;;;;;;;42.72;17.84;101608.91;5052049;28;19923;-66
2023/06/15 10:51:29;;;;;;;7.10;2.80;;;;;;;42.86;17.21;101603.13;5053088;28;20025;-66
2023/06/15 10:53:55;;;;;;;2.80;1.92;;;;;;;42.73;17.38;101606.91;5035568;28;20028;-67
2023/06/15 10:56:21;;;;;;;6.22;2.20;;;;;;;42.86;17.18;101611.59;5051738;28;20025;-67
2023/06/15 10:59:07;;;;;;;2.67;2.22;;;;;;;43.05;16.46;101611.38;5035206;28;20037;-67
2023/06/15 11:01:33;;;;;;;7.93;2.53;;;;;;;43.18;16.90;101601.91;5051766;28;20025;-67
2023/06/15 11:04:28;;;;;;;4.93;2.30;;;;;;;43.46;16.43;101594.84;5051735;28;20032;-67
2023/06/15 11:06:58;;;;;;;4.05;2.10;;;;;;;43.58;16.76;101611.13;5051730;28;20040;-67
2023/06/15 11:09:29;;;;;;;4.55;1.70;;;;;;;43.53;16.51;101608.47;5034911;28;20033;-66
2023/06/15 11:11:55;;;;;;;6.07;2.33;;;;;;;43.42;17.21;101605.13;5035151;28;20094;-67
2023/06/15 11:14:21;;;;;;;4.63;1.90;;;;;;;43.40;16.71;101601.81;5052110;28;20490;-68
2023/06/15 11:17:04;;;;;;;2.55;1.45;;;;;;;43.46;16.49;101603.31;5056385;28;20037;-66
2023/06/15 11:19:30;;;;;;;2.65;1.80;;;;;;;43.45;16.93;101604.47;5038819;28;20059;-66
2023/06/15 11:22:25;;;;;;;4.45;1.65;;;;;;;43.49;16.88;101599.81;5039239;28;20118;-66
2023/06/15 11:24:57;;;;;;;7.75;2.15;;;;;;;43.58;16.53;101592.19;5055619;28;20025;-67
2023/06/15 11:27:22;;;;;;;3.03;1.90;;;;;;;43.60;16.63;101595.50;5038773;28;20028;-68
2023/06/15 11:29:55;;;;;;;4.85;1.88;;;;;;;43.71;16.42;101594.00;5056588;28;20404;-66
2023/06/15 11:32:27;;;;;;;8.02;2.85;;;;;;;43.87;16.39;101589.53;5055311;28;20056;-66
2023/06/15 11:34:56;;;;;;;4.60;1.90;;;;;;;43.99;16.35;101595.31;5055182;28;20029;-67
2023/06/15 11:37:26;;;;;;;2.22;1.70;;;;;;;44.03;16.19;101593.47;5055345;28;20032;-66
2023/06/15 11:39:51;;;;;;;3.25;1.88;;;;;;;44.03;16.13;101599.13;5055243;28;20033;-65
2023/06/15 11:42:20;;;;;;;3.78;1.80;;;;;;;44.00;16.24;101594.13;5056302;28;20124;-68
2023/06/15 11:44:45;;;;;;;2.80;1.90;;;;;;;44.04;16.49;101589.50;5055029;28;20025;-67
2023/06/15 11:47:11;;;;;;;4.68;1.75;;;;;;;42.81;16.71;101573.09;5054911;28;20035;-66
2023/06/15 11:49:36;;;;;;;4.03;1.83;;;;;;;42.74;16.62;101577.56;5055033;28;20451;-67
2023/06/15 11:52:03;;;;;;;3.85;2.22;;;;;;;42.97;16.82;101579.13;5038355;28;20028;-67
2023/06/15 11:54:28;;;;;;;4.18;2.10;;;;;;;43.09;16.85;101572.84;5038385;28;20189;-66
2023/06/15 11:56:57;;;;;;;5.07;2.00;;;;;;;43.27;16.27;101578.19;5038211;28;20462;-66
2023/06/15 11:59:23;;;;;;;6.68;2.22;;;;;;;43.39;16.54;101578.38;5054897;28;20029;-67
2023/06/15 12:01:49;;;;;;;2.88;1.90;;;;;;;43.50;15.91;101573.22;5054669;28;20038;-68
2023/06/15 12:04:15;;;;;;;3.78;2.17;;;;;;;43.64;16.11;101564.63;5054620;28;20411;-67
2023/06/15 12:06:41;;;;;;;4.75;2.17;;;;;;;43.84;16.15;101570.41;5054250;28;20061;-67
2023/06/15 12:09:08;;;;;;;5.38;1.77;;;;;;;44.02;16.22;101562.75;5054732;28;20068;-67
2023/06/15 12:11:34;;;;;;;5.78;2.10;;;;;;;44.14;16.02;101559.25;5054670;28;20021;-66
2023/06/15 12:14:01;;;;;;;4.57;2.00;;;;;;;44.23;15.67;101560.03;5054617;28;20025;-66
2023/06/15 12:16:27;;;;;;;5.55;1.92;;;;;;;44.34;15.61;101564.13;5054569;28;20079;-67
2023/06/15 12:18:54;;;;;;;3.92;2.05;;;;;;;44.46;15.95;101544.47;5054422;28;20171;-67
2023/06/15 12:21:19;;;;;;;9.95;2.40;;;;;;;44.66;15.64;101552.22;5054422;28;20025;-66
2023/06/15 12:23:48;;;;;;;2.85;1.52;;;;;;;44.85;15.76;101543.28;5037718;28;20502;-66
2023/06/15 12:26:16;;;;;;;6.78;1.98;;;;;;;44.91;15.24;101544.78;5055647;28;20403;-68